sensor_id;sensor_type;location;lat;lon;timestamp;pressure;altitude;pressure_sealevel;temperature;humidity
45071;BME280;30836;48.906;9.140;2023-06-10T00:00:49;982.18;;;27.98;34.11
45071;BME280;30836;48.906;9.140;2023-06-10T00:01:50;982.16;;;27.87;34.27
45071;BME280;30836;48.906;9.140;2023-06-10T00:02:50;982.16;;;27.77;34.43
45071;BME280;30836;48.906;9.140;2023-06-10T00:03:51;982.18;;;27.69;34.59
45071;BME280;30836;48.906;9.140;2023-06-10T00:04:51;982.14;;;27.61;34.67
45071;BME280;30836;48.906;9.140;2023-06-10T00:05:52;982.16;;;27.54;34.85
45071;BME280;30836;48.906;9.140;2023-06-10T00:06:53;982.14;;;27.47;35.02
45071;BME280;30836;48.906;9.140;2023-06-10T00:07:53;982.16;;;27.42;35.14
45071;BME280;30836;48.906;9.140;2023-06-10T00:08:54;982.18;;;27.37;35.18
45071;BME280;30836;48.906;9.140;2023-06-10T00:09:54;982.16;;;27.32;35.32
45071;BME280;30836;48.906;9.140;2023-06-10T00:10:54;982.18;;;27.28;35.43
45071;BME280;30836;48.906;9.140;2023-06-10T00:11:55;982.18;;;27.23;35.55
45071;BME280;30836;48.906;9.140;2023-06-10T00:12:55;982.18;;;27.19;35.67
45071;BME280;30836;48.906;9.140;2023-06-10T00:13:56;982.18;;;27.15;35.69
45071;BME280;30836;48.906;9.140;2023-06-10T00:14:56;982.18;;;27.11;35.84
45071;BME280;30836;48.906;9.140;2023-06-10T00:15:57;982.16;;;27.07;35.91
45071;BME280;30836;48.906;9.140;2023-06-10T00:16:57;982.14;;;27.03;35.96
45071;BME280;30836;48.906;9.140;2023-06-10T00:17:58;982.14;;;27.00;36.01
45071;BME280;30836;48.906;9.140;2023-06-10T00:19:02;982.16;;;26.96;36.01
45071;BME280;30836;48.906;9.140;2023-06-10T00:20:03;982.14;;;26.92;36.05
45071;BME280;30836;48.906;9.140;2023-06-10T00:21:04;982.14;;;26.89;36.06
45071;BME280;30836;48.906;9.140;2023-06-10T00:22:04;982.16;;;26.86;36.08
45071;BME280;30836;48.906;9.140;2023-06-10T00:23:05;982.16;;;26.83;36.09
45071;BME280;30836;48.906;9.140;2023-06-10T00:24:06;982.14;;;26.80;36.19
45071;BME280;30836;48.906;9.140;2023-06-10T00:25:07;982.12;;;26.77;36.31
45071;BME280;30836;48.906;9.140;2023-06-10T00:26:09;982.12;;;26.75;36.31
45071;BME280;30836;48.906;9.140;2023-06-10T00:27:10;982.14;;;26.72;36.55
45071;BME280;30836;48.906;9.140;2023-06-10T00:28:10;982.14;;;26.69;36.78
45071;BME280;30836;48.906;9.140;2023-06-10T00:29:11;982.12;;;26.65;36.84
45071;BME280;30836;48.906;9.140;2023-06-10T00:30:11;982.14;;;26.62;36.83
45071;BME280;30836;48.906;9.140;2023-06-10T00:31:12;982.16;;;26.60;36.85
45071;BME280;30836;48.906;9.140;2023-06-10T00:32:13;982.16;;;26.58;36.95
45071;BME280;30836;48.906;9.140;2023-06-10T00:33:13;982.16;;;26.56;36.93
45071;BME280;30836;48.906;9.140;2023-06-10T00:34:14;982.18;;;26.54;37.07
45071;BME280;30836;48.906;9.140;2023-06-10T00:35:14;982.14;;;26.51;36.95
45071;BME280;30836;48.906;9.140;2023-06-10T00:36:14;982.16;;;26.49;36.97
45071;BME280;30836;48.906;9.140;2023-06-10T00:37:15;982.16;;;26.47;37.17
45071;BME280;30836;48.906;9.140;2023-06-10T00:38:15;982.18;;;26.45;37.29
45071;BME280;30836;48.906;9.140;2023-06-10T00:39:16;982.20;;;26.42;37.26
45071;BME280;30836;48.906;9.140;2023-06-10T00:40:16;982.18;;;26.39;37.24
45071;BME280;30836;48.906;9.140;2023-06-10T00:41:17;982.14;;;26.37;37.28
45071;BME280;30836;48.906;9.140;2023-06-10T00:42:17;982.16;;;26.35;37.37
45071;BME280;30836;48.906;9.140;2023-06-10T00:43:18;982.16;;;26.33;37.32
45071;BME280;30836;48.906;9.140;2023-06-10T00:44:18;982.18;;;26.31;37.47
45071;BME280;30836;48.906;9.140;2023-06-10T00:45:19;982.20;;;26.28;37.57
45071;BME280;30836;48.906;9.140;2023-06-10T00:46:19;982.18;;;26.25;37.66
45071;BME280;30836;48.906;9.140;2023-06-10T00:47:22;982.18;;;26.25;37.53
45071;BME280;30836;48.906;9.140;2023-06-10T00:47:32;982.20;;;26.32;37.49
45071;BME280;30836;48.906;9.140;2023-06-10T00:48:33;982.18;;;26.35;37.30
45071;BME280;30836;48.906;9.140;2023-06-10T00:49:34;982.14;;;26.37;37.38
45071;BME280;30836;48.906;9.140;2023-06-10T00:50:35;982.16;;;26.34;37.54
45071;BME280;30836;48.906;9.140;2023-06-10T00:51:35;982.16;;;26.30;37.66
45071;BME280;30836;48.906;9.140;2023-06-10T00:52:36;982.12;;;26.25;37.76
45071;BME280;30836;48.906;9.140;2023-06-10T00:53:37;982.14;;;26.20;37.86
45071;BME280;30836;48.906;9.140;2023-06-10T00:54:39;982.14;;;26.16;37.98
45071;BME280;30836;48.906;9.140;2023-06-10T00:55:41;982.18;;;26.13;38.01
45071;BME280;30836;48.906;9.140;2023-06-10T00:56:42;982.14;;;26.09;38.11
45071;BME280;30836;48.906;9.140;2023-06-10T00:57:42;982.16;;;26.04;38.23
45071;BME280;30836;48.906;9.140;2023-06-10T00:58:43;982.20;;;26.00;38.25
45071;BME280;30836;48.906;9.140;2023-06-10T00:59:45;982.18;;;25.96;38.38
45071;BME280;30836;48.906;9.140;2023-06-10T01:00:49;982.20;;;25.93;38.42
45071;BME280;30836;48.906;9.140;2023-06-10T01:01:49;982.20;;;25.90;38.54
45071;BME280;30836;48.906;9.140;2023-06-10T01:02:50;982.22;;;25.87;38.65
45071;BME280;30836;48.906;9.140;2023-06-10T01:03:50;982.24;;;25.85;38.68
45071;BME280;30836;48.906;9.140;2023-06-10T01:04:51;982.20;;;25.82;38.67
45071;BME280;30836;48.906;9.140;2023-06-10T01:05:55;982.20;;;25.79;38.74
45071;BME280;30836;48.906;9.140;2023-06-10T01:11:36;982.22;;;25.69;38.84
45071;BME280;30836;48.906;9.140;2023-06-10T01:12:50;982.20;;;25.68;38.67
45071;BME280;30836;48.906;9.140;2023-06-10T01:13:57;982.22;;;25.69;38.57
45071;BME280;30836;48.906;9.140;2023-06-10T01:14:59;982.24;;;25.70;38.56
45071;BME280;30836;48.906;9.140;2023-06-10T01:16:00;982.22;;;25.69;38.62
45071;BME280;30836;48.906;9.140;2023-06-10T01:17:01;982.24;;;25.68;38.57
45071;BME280;30836;48.906;9.140;2023-06-10T01:18:03;982.20;;;25.67;38.55
45071;BME280;30836;48.906;9.140;2023-06-10T01:19:05;982.20;;;25.68;38.51
45071;BME280;30836;48.906;9.140;2023-06-10T01:20:06;982.24;;;25.76;38.24
45071;BME280;30836;48.906;9.140;2023-06-10T01:21:07;982.22;;;25.89;38.07
45071;BME280;30836;48.906;9.140;2023-06-10T01:22:08;982.20;;;26.02;37.92
45071;BME280;30836;48.906;9.140;2023-06-10T01:23:09;982.18;;;26.14;37.80
45071;BME280;30836;48.906;9.140;2023-06-10T01:24:10;982.18;;;26.25;37.65
45071;BME280;30836;48.906;9.140;2023-06-10T01:25:11;982.22;;;26.34;37.54
45071;BME280;30836;48.906;9.140;2023-06-10T01:26:12;982.20;;;26.41;37.31
45071;BME280;30836;48.906;9.140;2023-06-10T01:27:13;982.22;;;26.48;37.11
45071;BME280;30836;48.906;9.140;2023-06-10T01:28:20;982.22;;;26.53;37.16
45071;BME280;30836;48.906;9.140;2023-06-10T01:30:37;982.18;;;26.59;37.03
45071;BME280;30836;48.906;9.140;2023-06-10T01:32:50;982.16;;;26.63;37.00
45071;BME280;30836;48.906;9.140;2023-06-10T01:33:52;982.20;;;26.59;37.38
45071;BME280;30836;48.906;9.140;2023-06-10T01:34:54;982.20;;;26.46;37.73
45071;BME280;30836;48.906;9.140;2023-06-10T01:35:58;982.18;;;26.31;37.97
45071;BME280;30836;48.906;9.140;2023-06-10T01:37:05;982.16;;;26.23;37.99
45071;BME280;30836;48.906;9.140;2023-06-10T01:38:17;982.20;;;26.23;37.79
45071;BME280;30836;48.906;9.140;2023-06-10T01:39:20;982.20;;;26.20;37.98
45071;BME280;30836;48.906;9.140;2023-06-10T01:40:23;982.22;;;26.12;38.12
45071;BME280;30836;48.906;9.140;2023-06-10T01:41:25;982.22;;;26.09;37.94
45071;BME280;30836;48.906;9.140;2023-06-10T01:42:27;982.20;;;26.08;37.88
45071;BME280;30836;48.906;9.140;2023-06-10T01:43:28;982.22;;;26.02;37.97
45071;BME280;30836;48.906;9.140;2023-06-10T01:44:29;982.24;;;25.92;38.11
45071;BME280;30836;48.906;9.140;2023-06-10T01:45:29;982.22;;;25.81;38.35
45071;BME280;30836;48.906;9.140;2023-06-10T01:46:29;982.26;;;25.72;38.36
45071;BME280;30836;48.906;9.140;2023-06-10T01:47:30;982.22;;;25.68;38.25
45071;BME280;30836;48.906;9.140;2023-06-10T01:48:31;982.26;;;25.63;38.47
45071;BME280;30836;48.906;9.140;2023-06-10T01:49:32;982.24;;;25.56;38.90
45071;BME280;30836;48.906;9.140;2023-06-10T01:50:32;982.26;;;25.49;39.33
45071;BME280;30836;48.906;9.140;2023-06-10T01:51:33;982.30;;;25.43;39.54
45071;BME280;30836;48.906;9.140;2023-06-10T01:52:33;982.26;;;25.38;39.55
45071;BME280;30836;48.906;9.140;2023-06-10T01:53:34;982.26;;;25.35;39.54
45071;BME280;30836;48.906;9.140;2023-06-10T01:54:34;982.30;;;25.31;39.68
45071;BME280;30836;48.906;9.140;2023-06-10T01:55:34;982.28;;;25.26;39.75
45071;BME280;30836;48.906;9.140;2023-06-10T01:56:35;982.28;;;25.23;39.76
45071;BME280;30836;48.906;9.140;2023-06-10T01:57:35;982.28;;;25.22;39.68
45071;BME280;30836;48.906;9.140;2023-06-10T01:59:45;982.28;;;25.18;39.74
45071;BME280;30836;48.906;9.140;2023-06-10T02:00:46;982.26;;;25.16;39.80
45071;BME280;30836;48.906;9.140;2023-06-10T02:01:46;982.24;;;25.13;39.88
45071;BME280;30836;48.906;9.140;2023-06-10T02:03:59;982.28;;;25.11;40.06
45071;BME280;30836;48.906;9.140;2023-06-10T02:04:59;982.28;;;25.13;40.17
45071;BME280;30836;48.906;9.140;2023-06-10T02:06:00;982.26;;;25.11;40.29
45071;BME280;30836;48.906;9.140;2023-06-10T02:07:04;982.26;;;25.08;40.35
45071;BME280;30836;48.906;9.140;2023-06-10T02:08:12;982.30;;;25.09;39.96
45071;BME280;30836;48.906;9.140;2023-06-10T02:09:13;982.28;;;25.11;39.84
45071;BME280;30836;48.906;9.140;2023-06-10T02:10:14;982.28;;;25.07;39.93
45071;BME280;30836;48.906;9.140;2023-06-10T02:11:14;982.28;;;25.01;40.13
45071;BME280;30836;48.906;9.140;2023-06-10T02:12:15;982.30;;;24.96;40.13
45071;BME280;30836;48.906;9.140;2023-06-10T02:13:15;982.30;;;24.93;39.93
45071;BME280;30836;48.906;9.140;2023-06-10T02:14:15;982.30;;;24.90;39.86
45071;BME280;30836;48.906;9.140;2023-06-10T02:15:16;982.30;;;24.87;39.80
45071;BME280;30836;48.906;9.140;2023-06-10T02:16:16;982.32;;;24.83;39.76
45071;BME280;30836;48.906;9.140;2023-06-10T02:17:18;982.34;;;24.81;39.66
45071;BME280;30836;48.906;9.140;2023-06-10T02:18:19;982.30;;;24.83;39.50
45071;BME280;30836;48.906;9.140;2023-06-10T02:19:20;982.32;;;24.85;39.54
45071;BME280;30836;48.906;9.140;2023-06-10T02:20:20;982.34;;;24.83;39.47
45071;BME280;30836;48.906;9.140;2023-06-10T02:21:21;982.34;;;24.81;39.54
45071;BME280;30836;48.906;9.140;2023-06-10T02:22:22;982.36;;;24.79;39.40
45071;BME280;30836;48.906;9.140;2023-06-10T02:23:23;982.36;;;24.79;39.38
45071;BME280;30836;48.906;9.140;2023-06-10T02:24:23;982.36;;;24.80;39.57
45071;BME280;30836;48.906;9.140;2023-06-10T02:25:24;982.40;;;24.78;39.60
45071;BME280;30836;48.906;9.140;2023-06-10T02:26:24;982.40;;;24.75;39.58
45071;BME280;30836;48.906;9.140;2023-06-10T02:27:24;982.38;;;24.72;39.74
45071;BME280;30836;48.906;9.140;2023-06-10T02:28:25;982.40;;;24.71;39.64
45071;BME280;30836;48.906;9.140;2023-06-10T02:29:25;982.40;;;24.69;39.41
45071;BME280;30836;48.906;9.140;2023-06-10T02:30:26;982.40;;;24.67;39.30
45071;BME280;30836;48.906;9.140;2023-06-10T02:31:26;982.42;;;24.66;39.26
45071;BME280;30836;48.906;9.140;2023-06-10T02:32:27;982.40;;;24.64;39.22
45071;BME280;30836;48.906;9.140;2023-06-10T02:33:27;982.42;;;24.62;39.31
45071;BME280;30836;48.906;9.140;2023-06-10T02:34:27;982.40;;;24.62;39.40
45071;BME280;30836;48.906;9.140;2023-06-10T02:35:28;982.40;;;24.64;39.31
45071;BME280;30836;48.906;9.140;2023-06-10T02:36:28;982.42;;;24.65;39.33
45071;BME280;30836;48.906;9.140;2023-06-10T02:37:29;982.44;;;24.65;39.24
45071;BME280;30836;48.906;9.140;2023-06-10T02:38:29;982.44;;;24.64;39.40
45071;BME280;30836;48.906;9.140;2023-06-10T02:39:29;982.46;;;24.62;39.61
45071;BME280;30836;48.906;9.140;2023-06-10T02:40:30;982.46;;;24.60;39.57
45071;BME280;30836;48.906;9.140;2023-06-10T02:41:31;982.48;;;24.60;39.49
45071;BME280;30836;48.906;9.140;2023-06-10T02:42:31;982.46;;;24.61;39.54
45071;BME280;30836;48.906;9.140;2023-06-10T02:43:31;982.46;;;24.61;39.44
45071;BME280;30836;48.906;9.140;2023-06-10T02:44:32;982.46;;;24.60;39.27
45071;BME280;30836;48.906;9.140;2023-06-10T02:45:33;982.51;;;24.59;39.42
45071;BME280;30836;48.906;9.140;2023-06-10T02:46:33;982.50;;;24.56;39.22
45071;BME280;30836;48.906;9.140;2023-06-10T02:47:34;982.53;;;24.52;39.10
45071;BME280;30836;48.906;9.140;2023-06-10T02:48:40;982.51;;;24.46;39.28
45071;BME280;30836;48.906;9.140;2023-06-10T02:49:43;982.53;;;24.36;39.26
45071;BME280;30836;48.906;9.140;2023-06-10T02:50:43;982.53;;;24.35;39.07
45071;BME280;30836;48.906;9.140;2023-06-10T02:51:44;982.57;;;24.44;38.76
45071;BME280;30836;48.906;9.140;2023-06-10T02:52:44;982.55;;;24.58;38.30
45071;BME280;30836;48.906;9.140;2023-06-10T02:53:44;982.59;;;24.71;38.25
45071;BME280;30836;48.906;9.140;2023-06-10T02:54:45;982.57;;;24.83;37.87
45071;BME280;30836;48.906;9.140;2023-06-10T02:55:45;982.61;;;24.94;37.69
45071;BME280;30836;48.906;9.140;2023-06-10T02:56:46;982.61;;;25.07;37.53
45071;BME280;30836;48.906;9.140;2023-06-10T02:57:46;982.63;;;25.23;37.28
45071;BME280;30836;48.906;9.140;2023-06-10T02:58:47;982.61;;;25.34;36.97
45071;BME280;30836;48.906;9.140;2023-06-10T02:59:47;982.63;;;25.42;36.74
45071;BME280;30836;48.906;9.140;2023-06-10T03:00:47;982.63;;;25.49;36.70
45071;BME280;30836;48.906;9.140;2023-06-10T03:01:48;982.63;;;25.50;37.03
45071;BME280;30836;48.906;9.140;2023-06-10T03:02:48;982.67;;;25.50;36.93
45071;BME280;30836;48.906;9.140;2023-06-10T03:03:49;982.65;;;25.56;36.64
45071;BME280;30836;48.906;9.140;2023-06-10T03:04:49;982.65;;;25.62;36.55
45071;BME280;30836;48.906;9.140;2023-06-10T03:05:50;982.65;;;25.67;36.33
45071;BME280;30836;48.906;9.140;2023-06-10T03:06:50;982.65;;;25.68;36.52
45071;BME280;30836;48.906;9.140;2023-06-10T03:07:50;982.65;;;25.68;36.32
45071;BME280;30836;48.906;9.140;2023-06-10T03:08:51;982.65;;;25.75;36.33
45071;BME280;30836;48.906;9.140;2023-06-10T03:09:51;982.65;;;25.81;36.13
45071;BME280;30836;48.906;9.140;2023-06-10T03:10:52;982.65;;;25.86;36.01
45071;BME280;30836;48.906;9.140;2023-06-10T03:11:52;982.67;;;25.92;35.94
45071;BME280;30836;48.906;9.140;2023-06-10T03:12:53;982.61;;;25.95;35.95
45071;BME280;30836;48.906;9.140;2023-06-10T03:13:53;982.67;;;25.95;36.07
45071;BME280;30836;48.906;9.140;2023-06-10T03:14:54;982.65;;;25.96;35.97
45071;BME280;30836;48.906;9.140;2023-06-10T03:15:54;982.67;;;25.99;36.02
45071;BME280;30836;48.906;9.140;2023-06-10T03:16:54;982.63;;;26.02;35.99
45071;BME280;30836;48.906;9.140;2023-06-10T03:17:55;982.63;;;26.05;35.98
45071;BME280;30836;48.906;9.140;2023-06-10T03:18:55;982.65;;;26.06;36.10
45071;BME280;30836;48.906;9.140;2023-06-10T03:19:56;982.67;;;26.08;36.06
45071;BME280;30836;48.906;9.140;2023-06-10T03:20:56;982.69;;;26.11;35.95
45071;BME280;30836;48.906;9.140;2023-06-10T03:23:07;982.67;;;26.16;35.95
45071;BME280;30836;48.906;9.140;2023-06-10T03:24:09;982.67;;;26.16;35.99
45071;BME280;30836;48.906;9.140;2023-06-10T03:25:09;982.67;;;26.09;36.22
45071;BME280;30836;48.906;9.140;2023-06-10T03:26:10;982.69;;;25.94;36.64
45071;BME280;30836;48.906;9.140;2023-06-10T03:27:11;982.67;;;25.76;36.98
45071;BME280;30836;48.906;9.140;2023-06-10T03:28:12;982.69;;;25.62;36.99
45071;BME280;30836;48.906;9.140;2023-06-10T03:29:12;982.67;;;25.53;37.19
45071;BME280;30836;48.906;9.140;2023-06-10T03:30:13;982.71;;;25.46;37.31
45071;BME280;30836;48.906;9.140;2023-06-10T03:31:14;982.69;;;25.40;37.35
45071;BME280;30836;48.906;9.140;2023-06-10T03:32:14;982.71;;;25.36;37.51
45071;BME280;30836;48.906;9.140;2023-06-10T03:33:15;982.73;;;25.32;37.61
45071;BME280;30836;48.906;9.140;2023-06-10T03:34:15;982.73;;;25.29;37.56
45071;BME280;30836;48.906;9.140;2023-06-10T03:35:15;982.75;;;25.27;37.65
45071;BME280;30836;48.906;9.140;2023-06-10T03:36:16;982.73;;;25.25;37.75
45071;BME280;30836;48.906;9.140;2023-06-10T03:37:16;982.73;;;25.23;37.68
45071;BME280;30836;48.906;9.140;2023-06-10T03:38:17;982.75;;;25.22;37.70
45071;BME280;30836;48.906;9.140;2023-06-10T03:39:17;982.75;;;25.21;37.69
45071;BME280;30836;48.906;9.140;2023-06-10T03:40:18;982.75;;;25.19;37.74
45071;BME280;30836;48.906;9.140;2023-06-10T03:41:18;982.75;;;25.17;37.70
45071;BME280;30836;48.906;9.140;2023-06-10T03:42:19;982.75;;;25.16;37.82
45071;BME280;30836;48.906;9.140;2023-06-10T03:43:19;982.77;;;25.15;37.88
45071;BME280;30836;48.906;9.140;2023-06-10T03:44:19;982.77;;;25.15;37.89
45071;BME280;30836;48.906;9.140;2023-06-10T03:45:20;982.79;;;25.15;37.92
45071;BME280;30836;48.906;9.140;2023-06-10T03:46:20;982.81;;;25.14;37.98
45071;BME280;30836;48.906;9.140;2023-06-10T03:47:21;982.79;;;25.14;38.06
45071;BME280;30836;48.906;9.140;2023-06-10T03:48:21;982.83;;;25.13;38.17
45071;BME280;30836;48.906;9.140;2023-06-10T03:49:22;982.87;;;25.12;38.18
45071;BME280;30836;48.906;9.140;2023-06-10T03:50:22;982.85;;;25.11;38.27
45071;BME280;30836;48.906;9.140;2023-06-10T03:51:22;982.87;;;25.11;38.34
45071;BME280;30836;48.906;9.140;2023-06-10T03:52:23;982.89;;;25.09;38.51
45071;BME280;30836;48.906;9.140;2023-06-10T03:53:23;982.89;;;25.07;38.53
45071;BME280;30836;48.906;9.140;2023-06-10T03:54:24;982.91;;;25.05;38.73
45071;BME280;30836;48.906;9.140;2023-06-10T03:55:24;982.93;;;25.02;38.83
45071;BME280;30836;48.906;9.140;2023-06-10T03:56:25;982.89;;;25.00;38.74
45071;BME280;30836;48.906;9.140;2023-06-10T03:57:25;982.89;;;24.98;38.70
45071;BME280;30836;48.906;9.140;2023-06-10T03:58:26;982.91;;;24.96;38.78
45071;BME280;30836;48.906;9.140;2023-06-10T03:59:26;982.91;;;24.92;38.89
45071;BME280;30836;48.906;9.140;2023-06-10T04:00:27;982.91;;;24.89;38.95
45071;BME280;30836;48.906;9.140;2023-06-10T04:01:27;982.95;;;24.87;39.04
45071;BME280;30836;48.906;9.140;2023-06-10T04:02:28;982.93;;;24.85;39.04
45071;BME280;30836;48.906;9.140;2023-06-10T04:03:28;982.93;;;24.84;39.02
45071;BME280;30836;48.906;9.140;2023-06-10T04:04:28;982.93;;;24.83;39.17
45071;BME280;30836;48.906;9.140;2023-06-10T04:05:29;982.93;;;24.83;39.18
45071;BME280;30836;48.906;9.140;2023-06-10T04:06:29;982.93;;;24.82;39.31
45071;BME280;30836;48.906;9.140;2023-06-10T04:07:30;982.93;;;24.81;39.34
45071;BME280;30836;48.906;9.140;2023-06-10T04:08:30;982.93;;;24.80;39.45
45071;BME280;30836;48.906;9.140;2023-06-10T04:09:31;982.93;;;24.80;39.49
45071;BME280;30836;48.906;9.140;2023-06-10T04:10:31;982.93;;;24.80;39.45
45071;BME280;30836;48.906;9.140;2023-06-10T04:11:31;982.91;;;24.80;39.46
45071;BME280;30836;48.906;9.140;2023-06-10T04:12:32;982.93;;;24.81;39.49
45071;BME280;30836;48.906;9.140;2023-06-10T04:13:32;982.91;;;24.83;39.41
45071;BME280;30836;48.906;9.140;2023-06-10T04:14:33;982.91;;;24.85;39.44
45071;BME280;30836;48.906;9.140;2023-06-10T04:15:33;982.97;;;24.85;39.52
45071;BME280;30836;48.906;9.140;2023-06-10T04:16:34;982.95;;;24.86;39.49
45071;BME280;30836;48.906;9.140;2023-06-10T04:17:34;982.97;;;24.88;39.36
45071;BME280;30836;48.906;9.140;2023-06-10T04:18:35;982.95;;;24.89;39.36
45071;BME280;30836;48.906;9.140;2023-06-10T04:19:36;982.93;;;24.92;39.46
45071;BME280;30836;48.906;9.140;2023-06-10T04:20:36;982.93;;;24.94;39.71
45071;BME280;30836;48.906;9.140;2023-06-10T04:21:37;982.93;;;24.95;39.65
45071;BME280;30836;48.906;9.140;2023-06-10T04:22:37;982.93;;;24.97;39.50
45071;BME280;30836;48.906;9.140;2023-06-10T04:23:37;982.91;;;24.99;39.57
45071;BME280;30836;48.906;9.140;2023-06-10T04:24:38;982.95;;;25.00;39.64
45071;BME280;30836;48.906;9.140;2023-06-10T04:25:38;982.95;;;25.01;39.74
45071;BME280;30836;48.906;9.140;2023-06-10T04:26:39;982.95;;;25.02;39.71
45071;BME280;30836;48.906;9.140;2023-06-10T04:27:39;982.97;;;25.03;39.57
45071;BME280;30836;48.906;9.140;2023-06-10T04:28:40;982.95;;;25.04;39.43
45071;BME280;30836;48.906;9.140;2023-06-10T04:29:40;982.97;;;25.06;39.40
45071;BME280;30836;48.906;9.140;2023-06-10T04:30:41;982.97;;;25.08;39.33
45071;BME280;30836;48.906;9.140;2023-06-10T04:31:41;983.01;;;25.11;39.29
45071;BME280;30836;48.906;9.140;2023-06-10T04:32:41;983.01;;;25.13;39.19
45071;BME280;30836;48.906;9.140;2023-06-10T04:33:42;983.01;;;25.15;39.13
45071;BME280;30836;48.906;9.140;2023-06-10T04:34:42;983.03;;;25.17;39.19
45071;BME280;30836;48.906;9.140;2023-06-10T04:35:43;983.01;;;25.18;39.21
45071;BME280;30836;48.906;9.140;2023-06-10T04:36:43;983.01;;;25.20;39.10
45071;BME280;30836;48.906;9.140;2023-06-10T04:37:43;983.01;;;25.21;39.03
45071;BME280;30836;48.906;9.140;2023-06-10T04:38:44;983.03;;;25.23;38.98
45071;BME280;30836;48.906;9.140;2023-06-10T04:39:45;983.05;;;25.25;39.14
45071;BME280;30836;48.906;9.140;2023-06-10T04:40:45;983.05;;;25.27;39.19
45071;BME280;30836;48.906;9.140;2023-06-10T04:41:46;983.05;;;25.29;39.17
45071;BME280;30836;48.906;9.140;2023-06-10T04:42:46;983.06;;;25.32;39.11
45071;BME280;30836;48.906;9.140;2023-06-10T04:43:46;983.06;;;25.35;39.19
45071;BME280;30836;48.906;9.140;2023-06-10T04:44:47;983.08;;;25.39;39.13
45071;BME280;30836;48.906;9.140;2023-06-10T04:45:47;983.08;;;25.42;38.98
45071;BME280;30836;48.906;9.140;2023-06-10T04:46:48;983.10;;;25.45;38.98
45071;BME280;30836;48.906;9.140;2023-06-10T04:47:48;983.12;;;25.47;38.93
45071;BME280;30836;48.906;9.140;2023-06-10T04:48:49;983.12;;;25.49;39.01
45071;BME280;30836;48.906;9.140;2023-06-10T04:49:49;983.14;;;25.51;38.98
45071;BME280;30836;48.906;9.140;2023-06-10T04:50:50;983.16;;;25.54;39.07
45071;BME280;30836;48.906;9.140;2023-06-10T04:51:50;983.12;;;25.55;39.19
45071;BME280;30836;48.906;9.140;2023-06-10T04:52:51;983.14;;;25.56;39.25
45071;BME280;30836;48.906;9.140;2023-06-10T04:53:51;983.10;;;25.59;39.23
45071;BME280;30836;48.906;9.140;2023-06-10T04:54:51;983.12;;;25.61;39.22
45071;BME280;30836;48.906;9.140;2023-06-10T04:55:52;983.10;;;25.63;39.20
45071;BME280;30836;48.906;9.140;2023-06-10T04:56:52;983.08;;;25.65;39.11
45071;BME280;30836;48.906;9.140;2023-06-10T04:57:53;983.10;;;25.68;39.00
45071;BME280;30836;48.906;9.140;2023-06-10T04:58:53;983.10;;;25.70;38.88
45071;BME280;30836;48.906;9.140;2023-06-10T04:59:54;983.08;;;25.73;38.76
45071;BME280;30836;48.906;9.140;2023-06-10T05:00:54;983.08;;;25.75;38.97
45071;BME280;30836;48.906;9.140;2023-06-10T05:01:55;983.10;;;25.75;38.97
45071;BME280;30836;48.906;9.140;2023-06-10T05:02:55;983.14;;;25.71;38.92
45071;BME280;30836;48.906;9.140;2023-06-10T05:03:55;983.12;;;25.66;39.11
45071;BME280;30836;48.906;9.140;2023-06-10T05:04:56;983.18;;;25.62;39.13
45071;BME280;30836;48.906;9.140;2023-06-10T05:05:56;983.18;;;25.61;39.22
45071;BME280;30836;48.906;9.140;2023-06-10T05:06:57;983.20;;;25.60;39.18
45071;BME280;30836;48.906;9.140;2023-06-10T05:07:57;983.22;;;25.59;39.25
45071;BME280;30836;48.906;9.140;2023-06-10T05:08:57;983.22;;;25.59;39.27
45071;BME280;30836;48.906;9.140;2023-06-10T05:09:58;983.22;;;25.57;39.33
45071;BME280;30836;48.906;9.140;2023-06-10T05:10:58;983.24;;;25.57;39.36
45071;BME280;30836;48.906;9.140;2023-06-10T05:11:59;983.22;;;25.58;39.27
45071;BME280;30836;48.906;9.140;2023-06-10T05:12:59;983.24;;;25.62;39.15
45071;BME280;30836;48.906;9.140;2023-06-10T05:14:00;983.26;;;25.65;39.11
45071;BME280;30836;48.906;9.140;2023-06-10T05:15:00;983.24;;;25.69;38.98
45071;BME280;30836;48.906;9.140;2023-06-10T05:16:01;983.24;;;25.72;38.89
45071;BME280;30836;48.906;9.140;2023-06-10T05:17:02;983.24;;;25.76;38.87
45071;BME280;30836;48.906;9.140;2023-06-10T05:18:02;983.26;;;25.80;38.92
45071;BME280;30836;48.906;9.140;2023-06-10T05:19:02;983.24;;;25.84;39.02
45071;BME280;30836;48.906;9.140;2023-06-10T05:20:03;983.22;;;25.88;39.17
45071;BME280;30836;48.906;9.140;2023-06-10T05:21:04;983.22;;;25.92;39.09
45071;BME280;30836;48.906;9.140;2023-06-10T05:22:05;983.24;;;25.96;38.83
45071;BME280;30836;48.906;9.140;2023-06-10T05:23:05;983.24;;;26.00;38.90
45071;BME280;30836;48.906;9.140;2023-06-10T05:24:06;983.24;;;26.04;38.87
45071;BME280;30836;48.906;9.140;2023-06-10T05:25:07;983.28;;;26.11;38.58
45071;BME280;30836;48.906;9.140;2023-06-10T05:26:07;983.30;;;26.25;38.08
45071;BME280;30836;48.906;9.140;2023-06-10T05:27:08;983.30;;;26.46;37.64
45071;BME280;30836;48.906;9.140;2023-06-10T05:28:08;983.30;;;26.66;37.22
45071;BME280;30836;48.906;9.140;2023-06-10T05:29:09;983.34;;;26.84;37.03
45071;BME280;30836;48.906;9.140;2023-06-10T05:30:10;983.32;;;26.99;36.83
45071;BME280;30836;48.906;9.140;2023-06-10T05:31:10;983.34;;;27.12;36.69
45071;BME280;30836;48.906;9.140;2023-06-10T05:32:11;983.36;;;27.24;36.40
45071;BME280;30836;48.906;9.140;2023-06-10T05:33:11;983.36;;;27.35;36.41
45071;BME280;30836;48.906;9.140;2023-06-10T05:34:12;983.38;;;27.46;36.44
45071;BME280;30836;48.906;9.140;2023-06-10T05:35:12;983.36;;;27.56;36.31
45071;BME280;30836;48.906;9.140;2023-06-10T05:36:13;983.38;;;27.65;36.10
45071;BME280;30836;48.906;9.140;2023-06-10T05:37:13;983.40;;;27.74;35.55
45071;BME280;30836;48.906;9.140;2023-06-10T05:38:14;983.38;;;27.82;35.62
45071;BME280;30836;48.906;9.140;2023-06-10T05:39:14;983.38;;;27.89;35.58
45071;BME280;30836;48.906;9.140;2023-06-10T05:40:14;983.36;;;27.96;35.34
45071;BME280;30836;48.906;9.140;2023-06-10T05:41:15;983.34;;;28.00;35.28